Time;durP1;ratioP1;P1;durP2;ratioP2;P2;SDS_P1;SDS_P2;PMS_P1;PMS_P2;Temp;Humidity;BMP_temperature;BMP_pressure;BME280_temperature;BME280_humidity;BME280_pressure;Samples;Min_cycle;Max_cycle;Signal;HPM_P1;HPM_P2
2020/12/20 00:00:29;;;;;;;4.20;2.22;;;8.90;73.90;;;;;;5032436;28;20026;-68
2020/12/20 00:02:56;;;;;;;3.45;1.90;;;8.90;73.90;;;;;;5032922;28;20319;-68
2020/12/20 00:05:26;;;;;;;4.07;2.08;;;8.90;73.50;;;;;;5033930;28;20021;-68
2020/12/20 00:07:53;;;;;;;3.72;1.83;;;8.90;73.20;;;;;;5034318;28;20082;-68
2020/12/20 00:10:20;;;;;;;4.53;1.90;;;8.90;73.40;;;;;;5033689;28;20099;-68
2020/12/20 00:12:49;;;;;;;4.00;2.13;;;8.90;73.60;;;;;;5034003;28;20353;-69
2020/12/20 00:15:16;;;;;;;4.10;2.17;;;8.90;74.10;;;;;;5034135;28;20100;-68
2020/12/20 00:17:49;;;;;;;3.85;2.20;;;8.80;74.10;;;;;;5032687;28;20287;-68
2020/12/20 00:20:16;;;;;;;3.97;2.10;;;8.80;74.30;;;;;;5033319;28;20051;-66
2020/12/20 00:22:41;;;;;;;3.65;2.00;;;8.90;74.10;;;;;;5032789;28;20370;-66
2020/12/20 00:25:10;;;;;;;4.43;2.00;;;8.90;73.90;;;;;;5033286;28;20030;-67
2020/12/20 00:27:35;;;;;;;3.05;1.65;;;8.90;73.90;;;;;;5032721;28;20113;-66
2020/12/20 00:30:02;;;;;;;4.38;1.92;;;9.00;73.40;;;;;;5037990;28;20104;-69
2020/12/20 00:32:28;;;;;;;4.43;1.98;;;9.00;73.70;;;;;;5036164;28;20051;-68
2020/12/20 00:34:53;;;;;;;3.28;1.58;;;9.10;73.90;;;;;;5037611;28;20049;-69
2020/12/20 00:37:19;;;;;;;5.13;2.10;;;9.10;74.60;;;;;;5037366;28;20034;-69
2020/12/20 00:39:45;;;;;;;4.32;2.08;;;9.00;75.40;;;;;;5037221;28;20025;-68
2020/12/20 00:42:10;;;;;;;3.40;1.90;;;8.90;75.90;;;;;;5036292;28;20037;-68
2020/12/20 00:44:36;;;;;;;3.40;1.73;;;9.00;76.00;;;;;;5037495;28;21831;-68
2020/12/20 00:47:03;;;;;;;5.18;2.42;;;9.10;76.00;;;;;;5032567;28;20445;-68
2020/12/20 00:49:31;;;;;;;4.32;2.03;;;9.20;76.10;;;;;;5037153;28;20060;-68
2020/12/20 00:51:59;;;;;;;3.88;2.20;;;9.10;76.50;;;;;;5036880;28;20029;-68
2020/12/20 00:54:26;;;;;;;3.92;1.90;;;9.10;77.10;;;;;;5037184;28;20079;-68
2020/12/20 00:56:52;;;;;;;4.30;2.13;;;9.20;77.20;;;;;;5036959;28;20033;-69
2020/12/20 00:59:20;;;;;;;4.47;2.10;;;9.20;77.50;;;;;;5036106;28;20086;-68
2020/12/20 01:01:46;;;;;;;3.92;2.08;;;9.20;77.50;;;;;;5035603;28;20021;-69
2020/12/20 01:04:11;;;;;;;5.15;2.20;;;9.20;77.90;;;;;;5037393;28;20355;-68
2020/12/20 01:06:37;;;;;;;5.35;2.10;;;9.10;78.00;;;;;;5036878;28;20413;-68
2020/12/20 01:12:25;;;;;;;6.22;3.53;;;9.00;79.00;;;;;;5036321;28;20075;-69
2020/12/20 01:14:50;;;;;;;5.60;3.25;;;8.80;78.90;;;;;;5036865;28;20046;-69
2020/12/20 01:17:16;;;;;;;7.38;4.20;;;8.40;80.30;;;;;;5036898;28;20037;-68
2020/12/20 01:19:42;;;;;;;7.55;3.88;;;8.10;81.80;;;;;;5027676;28;20022;-68
2020/12/20 01:22:07;;;;;;;8.70;4.13;;;7.90;82.60;;;;;;5018676;28;20022;-69
2020/12/20 01:24:36;;;;;;;7.57;4.60;;;7.80;83.60;;;;;;5034430;28;20017;-68
2020/12/20 01:27:01;;;;;;;10.32;4.10;;;7.60;84.40;;;;;;5036848;28;20034;-68
2020/12/20 01:29:27;;;;;;;8.10;4.72;;;7.40;85.20;;;;;;5035726;28;20032;-69
2020/12/20 01:31:53;;;;;;;6.75;4.22;;;7.40;85.60;;;;;;5036602;28;20335;-66
2020/12/20 01:34:18;;;;;;;7.60;4.85;;;7.30;86.10;;;;;;5036155;28;20318;-68
2020/12/20 01:36:44;;;;;;;7.88;4.50;;;7.20;86.60;;;;;;5036877;28;20464;-68
2020/12/20 01:39:11;;;;;;;9.05;4.95;;;7.10;86.90;;;;;;5034200;28;20033;-67
2020/12/20 01:41:36;;;;;;;7.85;5.43;;;7.00;87.10;;;;;;5035730;28;20044;-68
2020/12/20 01:44:02;;;;;;;7.50;5.18;;;7.00;87.40;;;;;;5036014;28;20022;-69
2020/12/20 01:46:28;;;;;;;8.40;5.18;;;7.00;87.70;;;;;;5036431;28;20481;-68
2020/12/20 01:48:54;;;;;;;12.65;6.15;;;6.90;88.20;;;;;;5034436;28;20048;-69
2020/12/20 01:51:20;;;;;;;8.38;5.18;;;6.80;88.90;;;;;;5035915;28;20075;-68
2020/12/20 01:53:47;;;;;;;8.10;5.50;;;6.70;89.40;;;;;;5035969;28;20099;-68
2020/12/20 01:56:12;;;;;;;10.32;5.80;;;6.70;89.50;;;;;;5034413;28;20343;-67
2020/12/20 01:58:38;;;;;;;9.52;5.75;;;6.70;89.70;;;;;;5034837;28;20028;-68
2020/12/20 02:01:05;;;;;;;10.68;5.90;;;6.80;89.60;;;;;;5034810;28;20025;-68
2020/12/20 02:03:32;;;;;;;9.07;5.65;;;6.80;89.80;;;;;;5035640;28;20018;-68
2020/12/20 02:05:58;;;;;;;8.80;5.50;;;6.80;90.00;;;;;;5034438;28;20552;-68
2020/12/20 02:08:25;;;;;;;10.00;6.18;;;6.70;90.20;;;;;;5035939;28;20057;-68
2020/12/20 02:11:09;;;;;;;8.68;5.40;;;6.60;90.40;;;;;;5032029;28;20476;-69
2020/12/20 02:13:38;;;;;;;9.73;5.97;;;6.60;90.80;;;;;;5035394;28;20049;-69
2020/12/20 02:16:05;;;;;;;10.88;6.78;;;6.70;90.70;;;;;;5035456;28;20053;-68
2020/12/20 02:18:30;;;;;;;12.80;6.50;;;6.60;90.80;;;;;;5035838;28;20128;-68
2020/12/20 02:20:56;;;;;;;10.30;6.40;;;6.60;90.90;;;;;;5034164;28;20104;-68
2020/12/20 02:23:22;;;;;;;10.48;6.57;;;6.60;91.00;;;;;;5035397;28;20112;-68
2020/12/20 02:25:51;;;;;;;10.23;6.47;;;6.50;91.10;;;;;;5034075;28;20036;-68
2020/12/20 02:28:20;;;;;;;12.70;5.95;;;6.50;91.40;;;;;;5035127;28;20381;-68
2020/12/20 02:30:46;;;;;;;9.68;5.55;;;6.60;91.40;;;;;;5034489;28;20032;-68
2020/12/20 02:33:12;;;;;;;9.13;6.13;;;6.80;91.10;;;;;;5035273;28;20364;-68
2020/12/20 02:35:42;;;;;;;10.48;6.20;;;6.80;91.10;;;;;;5033433;28;20105;-69
2020/12/20 02:38:08;;;;;;;8.88;5.30;;;6.90;91.30;;;;;;5034281;28;20064;-68
2020/12/20 02:40:37;;;;;;;7.47;4.57;;;7.00;91.20;;;;;;5033916;28;20049;-68
2020/12/20 02:43:03;;;;;;;11.00;6.05;;;7.10;91.30;;;;;;5034097;28;20026;-68
2020/12/20 02:45:29;;;;;;;10.57;6.22;;;7.10;90.80;;;;;;5034898;28;20028;-68
2020/12/20 02:47:54;;;;;;;9.80;6.45;;;7.00;91.00;;;;;;5034141;28;20040;-68
2020/12/20 02:50:20;;;;;;;9.13;6.25;;;7.00;91.20;;;;;;5035258;28;20095;-68
2020/12/20 02:52:45;;;;;;;13.60;6.90;;;6.90;91.50;;;;;;5034566;28;20112;-68
2020/12/20 02:55:11;;;;;;;11.63;7.68;;;6.80;91.40;;;;;;5033622;28;20040;-68
2020/12/20 02:57:37;;;;;;;11.68;7.32;;;6.70;91.50;;;;;;5030450;28;20327;-68
2020/12/20 03:00:04;;;;;;;9.82;6.45;;;6.70;91.80;;;;;;5034101;28;20060;-68
2020/12/20 03:02:30;;;;;;;12.55;7.55;;;6.60;92.00;;;;;;5033587;28;20028;-66
2020/12/20 03:04:55;;;;;;;10.85;7.50;;;6.50;91.90;;;;;;5033758;28;20029;-68
2020/12/20 03:07:21;;;;;;;13.40;6.97;;;6.50;92.20;;;;;;5032685;28;20037;-68
2020/12/20 03:09:50;;;;;;;10.60;7.05;;;6.60;92.40;;;;;;5032495;28;20025;-68
2020/12/20 03:12:17;;;;;;;11.07;6.78;;;6.70;92.30;;;;;;5034465;28;20037;-67
2020/12/20 03:14:43;;;;;;;10.40;7.00;;;6.60;92.50;;;;;;5033961;28;20132;-66
2020/12/20 03:17:09;;;;;;;9.93;6.88;;;6.60;92.10;;;;;;5034075;28;20034;-67
2020/12/20 03:19:35;;;;;;;10.15;6.15;;;6.60;92.10;;;;;;5034006;28;20026;-67
2020/12/20 03:22:03;;;;;;;10.10;5.90;;;6.70;92.30;;;;;;5034353;28;20033;-66
2020/12/20 03:24:29;;;;;;;8.60;5.15;;;6.80;92.20;;;;;;5032067;28;20033;-68
2020/12/20 03:26:54;;;;;;;8.82;5.57;;;6.90;92.20;;;;;;5033364;28;20034;-69
2020/12/20 03:29:20;;;;;;;9.68;5.38;;;7.00;91.40;;;;;;5033067;28;20033;-68
2020/12/20 03:31:46;;;;;;;8.95;5.88;;;7.00;91.50;;;;;;5032994;28;20112;-68
2020/12/20 03:34:11;;;;;;;8.35;5.75;;;6.90;91.30;;;;;;5035569;28;20423;-67
2020/12/20 03:36:37;;;;;;;10.80;6.07;;;6.90;91.40;;;;;;5033842;28;20112;-68
2020/12/20 03:39:09;;;;;;;9.60;5.88;;;6.90;91.40;;;;;;5044129;28;20035;-67
2020/12/20 03:41:36;;;;;;;7.93;4.20;;;6.90;91.50;;;;;;5039793;28;20033;-67
2020/12/20 03:44:05;;;;;;;8.43;4.63;;;7.00;91.90;;;;;;5035810;28;20044;-67
2020/12/20 03:46:32;;;;;;;9.20;4.00;;;7.20;91.30;;;;;;5034385;28;20057;-68
2020/12/20 03:48:58;;;;;;;8.05;3.80;;;7.30;90.90;;;;;;5038080;28;20045;-69
2020/12/20 03:51:24;;;;;;;7.32;4.05;;;7.40;90.70;;;;;;5039456;28;20030;-67
2020/12/20 03:53:49;;;;;;;7.75;4.10;;;7.40;90.60;;;;;;5041705;28;20059;-66
2020/12/20 03:56:15;;;;;;;7.78;3.97;;;7.50;90.50;;;;;;5033442;28;20091;-68
2020/12/20 03:58:41;;;;;;;8.00;3.90;;;7.40;90.50;;;;;;5037993;28;20028;-66
2020/12/20 04:01:09;;;;;;;7.65;3.50;;;7.50;90.20;;;;;;5039867;28;20024;-68
2020/12/20 04:03:34;;;;;;;6.32;3.78;;;7.50;90.30;;;;;;5038235;28;20075;-67
2020/12/20 04:06:00;;;;;;;6.40;3.28;;;7.60;90.30;;;;;;5038183;28;20033;-67
2020/12/20 04:08:29;;;;;;;9.32;4.53;;;7.60;90.10;;;;;;5039656;28;20036;-68
2020/12/20 04:10:54;;;;;;;7.07;3.95;;;7.50;90.10;;;;;;5041767;28;20411;-68
2020/12/20 04:13:20;;;;;;;6.63;3.50;;;7.50;90.50;;;;;;5043738;28;20028;-67
2020/12/20 04:15:45;;;;;;;7.22;3.70;;;7.40;90.40;;;;;;5040427;28;20025;-68
2020/12/20 04:18:12;;;;;;;6.95;4.22;;;7.40;90.70;;;;;;5037005;28;20029;-68
2020/12/20 04:20:37;;;;;;;6.60;3.90;;;7.40;90.80;;;;;;5038735;28;20437;-68
2020/12/20 04:23:06;;;;;;;5.68;3.10;;;7.30;90.80;;;;;;5038093;28;20029;-68
2020/12/20 04:25:34;;;;;;;5.05;2.90;;;7.40;90.60;;;;;;5041426;28;20116;-68
2020/12/20 04:27:59;;;;;;;8.25;2.97;;;7.50;90.30;;;;;;5036691;28;20128;-68
2020/12/20 04:30:26;;;;;;;5.32;3.05;;;7.60;90.50;;;;;;5042625;28;20104;-67
2020/12/20 04:32:52;;;;;;;5.53;2.47;;;7.60;90.90;;;;;;5042564;28;20025;-69
2020/12/20 04:35:17;;;;;;;4.47;2.33;;;7.60;90.80;;;;;;5036968;28;20041;-68
2020/12/20 04:37:43;;;;;;;6.25;2.55;;;7.60;90.90;;;;;;5036824;28;20041;-68
2020/12/20 04:40:09;;;;;;;4.15;2.30;;;7.70;91.10;;;;;;5035619;28;20032;-68
2020/12/20 04:42:34;;;;;;;4.57;2.17;;;7.70;91.20;;;;;;5037386;28;20030;-67
2020/12/20 04:45:00;;;;;;;4.00;2.30;;;7.70;90.90;;;;;;5037152;28;20040;-68
2020/12/20 04:47:27;;;;;;;5.28;2.65;;;7.70;90.60;;;;;;5036268;28;20418;-69
2020/12/20 04:49:56;;;;;;;5.75;2.50;;;7.70;90.60;;;;;;5038969;28;20064;-68
2020/12/20 04:52:22;;;;;;;6.60;3.35;;;7.60;90.80;;;;;;5037512;28;20037;-67
2020/12/20 04:54:52;;;;;;;6.20;2.85;;;7.50;90.60;;;;;;5035620;28;20026;-68
2020/12/20 04:57:17;;;;;;;4.78;2.53;;;7.60;90.90;;;;;;5035725;28;20029;-68
2020/12/20 04:59:44;;;;;;;4.88;2.63;;;7.60;90.90;;;;;;5037769;28;20394;-68
2020/12/20 05:02:10;;;;;;;5.15;2.58;;;7.60;90.70;;;;;;5035632;28;20427;-68
2020/12/20 05:04:37;;;;;;;5.30;2.90;;;7.70;90.20;;;;;;5035654;28;20022;-68
2020/12/20 05:07:06;;;;;;;4.75;2.30;;;7.80;89.80;;;;;;5037121;28;20322;-68
2020/12/20 05:09:47;;;;;;;5.07;2.42;;;7.90;89.80;;;;;;5035913;28;20032;-68
2020/12/20 05:12:28;;;;;;;4.13;2.38;;;7.90;90.20;;;;;;5036496;28;20099;-68
2020/12/20 05:14:55;;;;;;;3.75;1.73;;;7.90;89.70;;;;;;5035018;28;20092;-69
2020/12/20 05:17:20;;;;;;;6.65;2.15;;;8.00;89.40;;;;;;5033364;28;20342;-69
2020/12/20 05:19:46;;;;;;;9.07;2.45;;;8.10;89.20;;;;;;5035613;28;20026;-68
2020/12/20 05:22:16;;;;;;;4.43;2.13;;;8.00;89.40;;;;;;5036397;28;20022;-68
2020/12/20 05:24:43;;;;;;;5.15;2.20;;;8.00;89.40;;;;;;5033161;28;20116;-69
2020/12/20 05:27:27;;;;;;;6.13;2.28;;;8.10;89.20;;;;;;5035872;28;20103;-68
2020/12/20 05:30:11;;;;;;;4.47;2.05;;;8.10;88.90;;;;;;5016246;28;20036;-69
2020/12/20 05:32:40;;;;;;;4.65;2.10;;;8.20;88.70;;;;;;5032727;28;20148;-68
2020/12/20 05:35:18;;;;;;;4.47;2.40;;;8.10;88.80;;;;;;5034188;28;20033;-68
2020/12/20 05:37:47;;;;;;;9.40;3.15;;;8.00;89.00;;;;;;5027042;28;20025;-68
2020/12/20 05:40:33;;;;;;;5.93;3.05;;;7.80;89.10;;;;;;5032236;28;20029;-68
2020/12/20 05:43:11;;;;;;;5.25;2.55;;;7.70;89.50;;;;;;5033890;28;20025;-68
2020/12/20 05:45:37;;;;;;;10.57;3.25;;;7.70;90.10;;;;;;5035222;28;20025;-68
2020/12/20 05:48:16;;;;;;;6.80;3.70;;;7.60;90.20;;;;;;5036330;28;20040;-68
2020/12/20 05:50:56;;;;;;;5.82;3.58;;;7.40;89.80;;;;;;5052360;28;20437;-68
2020/12/20 05:53:33;;;;;;;6.80;3.38;;;7.30;90.10;;;;;;5039146;28;20036;-68
2020/12/20 05:56:00;;;;;;;7.32;3.53;;;7.30;90.00;;;;;;5031278;28;20025;-68
2020/12/20 05:58:30;;;;;;;6.53;4.10;;;7.20;89.90;;;;;;5035735;28;20434;-68
2020/12/20 06:00:57;;;;;;;6.18;3.95;;;7.20;89.70;;;;;;5036301;28;20068;-68
2020/12/20 06:03:24;;;;;;;9.05;3.97;;;7.10;89.80;;;;;;5036077;28;20025;-68
2020/12/20 06:05:50;;;;;;;6.70;3.80;;;7.10;90.00;;;;;;5026483;28;20038;-68
2020/12/20 06:08:21;;;;;;;7.47;3.97;;;7.00;90.10;;;;;;5031470;28;20389;-67
2020/12/20 06:10:49;;;;;;;7.30;4.60;;;7.00;89.90;;;;;;5030997;28;20056;-67
2020/12/20 06:13:19;;;;;;;8.73;4.93;;;6.90;89.90;;;;;;5035408;28;20113;-66
2020/12/20 06:15:51;;;;;;;7.35;4.20;;;6.80;90.20;;;;;;5035083;28;20028;-67
2020/12/20 06:18:24;;;;;;;6.50;4.47;;;6.70;90.30;;;;;;5032916;28;20052;-66
2020/12/20 06:20:59;;;;;;;7.95;4.70;;;6.60;90.40;;;;;;5036022;28;20091;-68
2020/12/20 06:23:27;;;;;;;5.90;3.53;;;6.60;90.60;;;;;;5033789;28;20021;-69
2020/12/20 06:25:57;;;;;;;5.45;2.92;;;6.60;90.70;;;;;;5032805;28;20031;-68
2020/12/20 06:28:27;;;;;;;6.30;3.10;;;6.70;91.80;;;;;;5035450;28;20032;-68
2020/12/20 06:30:57;;;;;;;6.10;3.22;;;6.80;92.00;;;;;;5035353;28;20440;-68
2020/12/20 06:33:45;;;;;;;5.18;3.30;;;6.80;91.90;;;;;;5032306;28;20048;-68
2020/12/20 06:36:14;;;;;;;7.55;4.15;;;7.00;91.30;;;;;;5034757;28;20323;-68
2020/12/20 06:38:40;;;;;;;12.48;4.43;;;7.10;90.20;;;;;;5034678;28;20096;-68
2020/12/20 06:41:05;;;;;;;6.75;3.80;;;7.10;90.30;;;;;;5033561;28;20145;-68
2020/12/20 06:43:33;;;;;;;6.40;3.95;;;7.00;90.20;;;;;;5035401;28;20319;-68
2020/12/20 06:45:59;;;;;;;7.97;4.50;;;6.90;90.00;;;;;;5034261;28;20029;-68
2020/12/20 06:48:31;;;;;;;7.47;4.05;;;6.80;90.60;;;;;;5033546;28;20389;-68
2020/12/20 06:50:57;;;;;;;8.80;4.72;;;6.80;90.60;;;;;;5027199;28;20104;-68
2020/12/20 06:53:45;;;;;;;7.60;4.80;;;6.80;90.70;;;;;;5033686;28;20104;-68
2020/12/20 06:56:24;;;;;;;7.90;4.20;;;6.60;90.50;;;;;;5032660;28;20052;-68
2020/12/20 06:58:53;;;;;;;8.27;4.18;;;6.60;91.10;;;;;;5034745;28;20476;-68
2020/12/20 07:01:39;;;;;;;10.65;5.38;;;6.60;91.40;;;;;;5034670;28;20022;-68
2020/12/20 07:04:06;;;;;;;7.03;4.22;;;6.50;91.20;;;;;;5033917;28;20029;-68
2020/12/20 07:06:32;;;;;;;7.43;4.38;;;6.50;91.50;;;;;;5033177;28;20032;-68
2020/12/20 07:09:05;;;;;;;6.60;3.65;;;6.50;91.70;;;;;;5034887;28;20039;-73
2020/12/20 07:11:31;;;;;;;8.93;4.35;;;6.60;91.40;;;;;;5033715;28;20030;-67
2020/12/20 07:13:57;;;;;;;7.93;5.18;;;6.60;91.40;;;;;;5033860;28;20032;-68
2020/12/20 07:16:37;;;;;;;7.80;5.00;;;6.60;91.00;;;;;;5033838;28;20037;-68
2020/12/20 07:19:04;;;;;;;8.35;5.05;;;6.50;90.50;;;;;;5034871;28;20021;-67
2020/12/20 07:21:29;;;;;;;8.35;5.38;;;6.40;90.20;;;;;;5032932;28;21540;-70
2020/12/20 07:24:17;;;;;;;8.80;5.75;;;6.40;90.40;;;;;;5038180;28;20021;-67
2020/12/20 07:26:47;;;;;;;8.90;5.82;;;6.40;90.70;;;;;;5033530;28;20025;-67
2020/12/20 07:29:13;;;;;;;7.97;5.15;;;6.40;91.00;;;;;;5034697;28;20105;-68
2020/12/20 07:31:40;;;;;;;9.70;5.22;;;6.40;91.00;;;;;;5033258;28;20025;-70
2020/12/20 07:34:07;;;;;;;9.27;5.78;;;6.40;90.90;;;;;;5034088;28;20068;-68
2020/12/20 07:36:33;;;;;;;10.40;5.78;;;6.40;91.00;;;;;;5027999;28;20049;-67
2020/12/20 07:38:58;;;;;;;10.75;5.93;;;6.40;90.70;;;;;;5037523;28;20366;-69
2020/12/20 07:41:24;;;;;;;9.50;5.40;;;6.40;90.80;;;;;;5036114;28;20488;-68
2020/12/20 07:43:52;;;;;;;7.35;4.68;;;6.40;90.90;;;;;;5037732;28;20362;-67
2020/12/20 07:46:20;;;;;;;7.43;4.30;;;6.40;90.70;;;;;;5036875;28;20022;-67
2020/12/20 07:48:46;;;;;;;7.43;4.05;;;6.40;90.60;;;;;;5036952;28;20054;-66
2020/12/20 07:51:23;;;;;;;7.88;4.60;;;6.40;91.00;;;;;;5036563;28;20338;-68
2020/12/20 07:53:50;;;;;;;8.60;4.20;;;6.40;91.30;;;;;;5038612;28;20450;-67
2020/12/20 07:56:45;;;;;;;7.57;4.78;;;6.50;91.00;;;;;;5036374;28;20037;-68
2020/12/20 07:59:14;;;;;;;6.35;3.72;;;6.50;90.80;;;;;;5038053;28;20317;-68
2020/12/20 08:01:43;;;;;;;9.60;4.10;;;6.60;90.40;;;;;;5038419;28;20311;-68
2020/12/20 08:04:10;;;;;;;7.95;4.50;;;6.70;90.00;;;;;;5038752;28;20029;-67
2020/12/20 08:06:39;;;;;;;9.77;5.55;;;6.80;89.70;;;;;;5036398;28;20326;-68
2020/12/20 08:09:11;;;;;;;10.02;5.93;;;6.90;89.70;;;;;;5037879;28;20410;-68
2020/12/20 08:11:38;;;;;;;14.25;6.22;;;7.00;89.50;;;;;;5037764;28;20494;-68
2020/12/20 08:14:06;;;;;;;19.05;7.03;;;7.00;89.20;;;;;;5038148;28;20080;-68
2020/12/20 08:16:34;;;;;;;16.05;6.72;;;7.10;89.10;;;;;;5036555;28;20091;-69
2020/12/20 08:19:14;;;;;;;10.70;5.75;;;7.20;88.90;;;;;;5030213;28;20450;-68
2020/12/20 08:21:58;;;;;;;9.32;5.63;;;7.30;88.40;;;;;;5033657;28;20053;-68
2020/12/20 08:24:29;;;;;;;11.63;5.40;;;7.30;88.30;;;;;;5035899;28;20017;-68
2020/12/20 08:26:55;;;;;;;11.82;5.97;;;7.40;88.20;;;;;;5030813;28;20113;-68
2020/12/20 08:29:21;;;;;;;12.73;6.38;;;7.50;88.10;;;;;;5037248;28;20072;-69
2020/12/20 08:31:48;;;;;;;13.25;6.22;;;7.50;88.20;;;;;;5037192;28;20384;-68
2020/12/20 08:34:22;;;;;;;14.35;6.78;;;7.70;87.40;;;;;;5037469;28;20030;-68
2020/12/20 08:36:52;;;;;;;11.95;6.22;;;7.80;86.80;;;;;;5036415;28;20035;-68
2020/12/20 08:39:23;;;;;;;13.10;6.20;;;7.80;86.60;;;;;;5036168;28;20048;-68
2020/12/20 08:42:13;;;;;;;11.00;5.07;;;7.80;86.60;;;;;;5036914;28;20026;-68
2020/12/20 08:44:45;;;;;;;7.82;4.60;;;7.80;86.60;;;;;;5036564;28;20104;-68
2020/12/20 08:47:19;;;;;;;7.70;3.72;;;7.90;86.50;;;;;;5035699;28;20037;-68
2020/12/20 08:49:55;;;;;;;9.32;3.50;;;8.00;86.10;;;;;;5052331;28;20059;-68
2020/12/20 08:52:20;;;;;;;11.82;6.85;;;8.20;85.60;;;;;;5042428;28;20025;-68
2020/12/20 08:54:50;;;;;;;13.10;6.63;;;8.50;85.30;;;;;;5034502;28;20116;-68
2020/12/20 08:57:16;;;;;;;8.75;4.65;;;8.90;84.50;;;;;;5034120;28;20080;-68
2020/12/20 08:59:46;;;;;;;7.47;3.83;;;9.50;82.40;;;;;;5037000;28;20311;-68
2020/12/20 09:02:24;;;;;;;7.25;3.67;;;9.80;81.10;;;;;;5037313;28;20053;-68
2020/12/20 09:05:00;;;;;;;5.70;3.25;;;9.80;80.50;;;;;;5031936;28;20060;-67
2020/12/20 09:07:46;;;;;;;7.35;3.55;;;9.60;81.10;;;;;;5030684;28;20041;-67
2020/12/20 09:10:13;;;;;;;7.88;3.60;;;9.30;81.70;;;;;;5029994;28;20025;-66
2020/12/20 09:12:51;;;;;;;6.38;3.63;;;9.30;82.20;;;;;;5031705;28;20048;-66
2020/12/20 09:15:27;;;;;;;8.00;3.90;;;9.80;81.30;;;;;;5032520;28;20033;-67
2020/12/20 09:17:56;;;;;;;6.75;3.42;;;10.60;79.80;;;;;;5032764;28;20033;-69
2020/12/20 09:20:29;;;;;;;8.15;3.80;;;11.40;77.40;;;;;;5035070;28;20133;-68
2020/12/20 09:22:59;;;;;;;10.10;3.72;;;11.80;75.90;;;;;;5029799;28;20030;-69
2020/12/20 09:25:43;;;;;;;8.05;3.35;;;11.70;76.20;;;;;;5029822;28;20026;-69
2020/12/20 09:28:11;;;;;;;;;;;11.70;75.80;;;;;;5031094;28;20338;-68
2020/12/20 09:30:49;;;;;;;12.18;4.72;;;11.60;75.80;;;;;;5038214;28;19953;-67
2020/12/20 09:33:29;;;;;;;7.35;4.28;;;11.30;76.50;;;;;;5033585;28;20025;-68
2020/12/20 09:36:04;;;;;;;8.45;4.57;;;11.10;77.40;;;;;;5033523;28;20037;-68
2020/12/20 09:38:56;;;;;;;12.07;5.03;;;11.20;78.10;;;;;;5030106;28;20033;-68
2020/12/20 09:41:24;;;;;;;7.30;4.65;;;11.40;78.50;;;;;;5021901;28;20032;-69
2020/12/20 09:43:51;;;;;;;9.10;5.30;;;11.60;77.70;;;;;;5037101;28;20025;-69
2020/12/20 09:46:24;;;;;;;8.27;4.50;;;11.80;78.20;;;;;;5036258;28;20029;-68
2020/12/20 09:48:51;;;;;;;11.95;5.28;;;12.20;78.40;;;;;;5044295;28;20049;-69
2020/12/20 09:51:18;;;;;;;8.52;4.70;;;12.40;77.10;;;;;;5035230;28;20422;-68
2020/12/20 09:53:44;;;;;;;10.32;5.45;;;12.70;77.70;;;;;;5033120;28;20030;-68
2020/12/20 09:56:10;;;;;;;7.93;4.88;;;13.00;77.40;;;;;;5026301;28;20288;-69
2020/12/20 09:58:35;;;;;;;9.15;4.97;;;13.20;76.20;;;;;;5039292;28;20087;-68
2020/12/20 10:01:01;;;;;;;7.63;4.18;;;13.30;76.10;;;;;;5039009;28;20022;-68
2020/12/20 10:03:30;;;;;;;7.85;4.45;;;13.20;75.30;;;;;;5035679;28;20271;-68
2020/12/20 10:05:59;;;;;;;10.63;4.55;;;13.10;75.80;;;;;;5034149;28;20441;-68
2020/12/20 10:08:25;;;;;;;10.02;4.95;;;12.90;75.60;;;;;;5034423;28;20068;-67
2020/12/20 10:10:55;;;;;;;7.85;4.28;;;12.80;76.20;;;;;;5031553;28;20037;-69
2020/12/20 10:13:25;;;;;;;7.78;4.43;;;12.80;76.00;;;;;;5035625;28;20164;-69
2020/12/20 10:15:50;;;;;;;6.95;3.92;;;12.60;76.80;;;;;;5028895;28;20061;-69
2020/12/20 10:18:16;;;;;;;7.32;4.07;;;12.60;75.90;;;;;;5032190;28;20068;-68
2020/12/20 10:20:45;;;;;;;10.10;4.63;;;12.50;76.00;;;;;;5033364;28;20987;-68
2020/12/20 10:23:11;;;;;;;9.15;4.75;;;12.20;76.70;;;;;;5034142;28;20083;-67
2020/12/20 10:25:37;;;;;;;8.80;4.78;;;12.10;77.50;;;;;;5033137;28;20018;-68
2020/12/20 10:28:02;;;;;;;7.65;3.90;;;12.10;78.20;;;;;;5030560;28;20048;-68
2020/12/20 10:30:28;;;;;;;7.82;4.40;;;12.20;77.50;;;;;;5031957;28;20038;-68
2020/12/20 10:32:55;;;;;;;7.70;4.10;;;12.30;76.80;;;;;;5033726;28;20040;-69
2020/12/20 10:35:23;;;;;;;8.52;3.75;;;12.50;77.10;;;;;;5034059;28;20029;-69
2020/12/20 10:37:56;;;;;;;8.38;3.50;;;13.10;76.00;;;;;;5036223;28;20096;-69
2020/12/20 10:40:24;;;;;;;6.28;3.13;;;13.90;74.80;;;;;;5029753;28;20422;-69
2020/12/20 10:42:49;;;;;;;7.35;3.47;;;14.10;72.00;;;;;;5030416;28;20034;-68
2020/12/20 10:45:17;;;;;;;8.10;3.30;;;13.80;72.30;;;;;;5034419;28;20732;-67
2020/12/20 10:47:43;;;;;;;7.88;3.20;;;13.50;73.00;;;;;;5024757;28;20080;-68
2020/12/20 10:50:09;;;;;;;6.20;2.65;;;13.20;73.60;;;;;;5031472;28;20341;-67
2020/12/20 10:52:36;;;;;;;5.90;3.03;;;12.90;74.50;;;;;;5032960;28;20033;-67
2020/12/20 10:55:04;;;;;;;9.05;5.28;;;12.90;73.70;;;;;;5030113;28;20025;-68
2020/12/20 10:57:30;;;;;;;16.23;9.32;;;12.70;75.30;;;;;;5024983;28;20485;-68
2020/12/20 10:59:56;;;;;;;13.77;7.78;;;12.40;77.00;;;;;;5032495;28;20037;-69
2020/12/20 11:02:24;;;;;;;12.27;6.75;;;12.10;78.00;;;;;;5034796;28;20030;-67
2020/12/20 11:04:50;;;;;;;18.63;8.30;;;11.80;79.00;;;;;;5029948;28;20097;-67
2020/12/20 11:07:16;;;;;;;10.35;6.28;;;11.60;79.40;;;;;;5032067;28;20045;-67
2020/12/20 11:09:46;;;;;;;16.33;8.77;;;11.50;80.40;;;;;;5035235;28;20099;-67
2020/12/20 11:12:11;;;;;;;11.48;7.78;;;11.40;80.80;;;;;;5019213;28;20351;-68
2020/12/20 11:14:37;;;;;;;16.00;9.43;;;11.30;82.20;;;;;;5034553;28;20033;-68
2020/12/20 11:17:03;;;;;;;15.57;10.00;;;11.20;83.00;;;;;;5036036;28;20072;-68
2020/12/20 11:19:29;;;;;;;15.93;9.35;;;11.20;83.00;;;;;;5028439;28;20021;-68
2020/12/20 11:21:56;;;;;;;15.35;8.82;;;11.10;82.60;;;;;;5026953;28;20268;-67
2020/12/20 11:24:22;;;;;;;16.25;9.30;;;11.20;82.90;;;;;;5014992;28;20025;-68
2020/12/20 11:26:49;;;;;;;12.80;8.60;;;11.50;82.30;;;;;;5027293;28;20034;-67
2020/12/20 11:29:15;;;;;;;17.08;10.93;;;11.60;82.30;;;;;;5028788;28;20029;-67
2020/12/20 11:31:42;;;;;;;16.10;9.15;;;11.90;82.20;;;;;;5033300;28;20461;-68
2020/12/20 11:34:11;;;;;;;18.25;8.35;;;11.90;81.70;;;;;;5018765;28;20065;-68
2020/12/20 11:36:41;;;;;;;12.88;7.78;;;11.90;81.50;;;;;;5021783;28;20084;-68
2020/12/20 11:39:09;;;;;;;11.73;5.20;;;11.80;81.80;;;;;;5017239;28;20116;-66
2020/12/20 11:41:37;;;;;;;12.77;6.03;;;11.90;79.30;;;;;;5022825;28;20480;-67
2020/12/20 11:44:05;;;;;;;8.25;3.90;;;12.00;80.00;;;;;;5019489;28;20423;-68
2020/12/20 11:46:35;;;;;;;11.15;6.80;;;12.10;77.40;;;;;;5018798;28;20422;-66
2020/12/20 11:49:01;;;;;;;7.97;3.83;;;12.10;80.40;;;;;;5026468;28;20045;-67
2020/12/20 11:51:27;;;;;;;6.15;2.55;;;12.20;79.10;;;;;;5024770;28;20414;-67
2020/12/20 11:53:54;;;;;;;6.05;3.00;;;12.50;77.20;;;;;;5025059;28;20029;-68
2020/12/20 11:56:21;;;;;;;5.65;2.65;;;12.60;76.90;;;;;;5024067;28;20021;-68
2020/12/20 11:58:48;;;;;;;9.82;4.47;;;12.90;76.40;;;;;;5028881;28;20040;-67
2020/12/20 12:01:29;;;;;;;10.95;3.15;;;13.00;77.60;;;;;;5022682;28;20033;-66
2020/12/20 12:03:58;;;;;;;5.22;2.10;;;13.20;77.40;;;;;;5023095;28;20410;-67
2020/12/20 12:06:24;;;;;;;5.65;2.05;;;13.60;76.00;;;;;;5028601;28;20042;-67
2020/12/20 12:08:50;;;;;;;7.00;2.90;;;14.20;75.40;;;;;;5023332;28;20144;-67
2020/12/20 12:11:26;;;;;;;5.60;2.95;;;14.80;73.80;;;;;;5016716;28;20032;-68
2020/12/20 12:13:54;;;;;;;5.18;2.50;;;14.80;73.50;;;;;;5019521;28;20038;-67
2020/12/20 12:16:20;;;;;;;5.95;2.47;;;14.40;73.90;;;;;;5021400;28;20131;-68
2020/12/20 12:18:47;;;;;;;4.82;2.55;;;14.00;74.80;;;;;;5019461;28;20036;-68
2020/12/20 12:21:15;;;;;;;4.18;1.85;;;13.70;75.80;;;;;;5019275;28;20024;-66
2020/12/20 12:23:41;;;;;;;6.32;3.10;;;13.30;77.10;;;;;;5028830;28;20025;-67
2020/12/20 12:26:07;;;;;;;6.88;3.00;;;13.00;77.70;;;;;;5027192;28;20026;-67
2020/12/20 12:28:33;;;;;;;6.10;2.92;;;12.70;79.50;;;;;;5018978;28;20025;-67
2020/12/20 12:30:58;;;;;;;6.80;3.42;;;12.40;80.30;;;;;;5021902;28;20084;-68
2020/12/20 12:33:24;;;;;;;8.43;4.03;;;12.30;81.20;;;;;;5026208;28;20049;-67
2020/12/20 12:35:50;;;;;;;6.82;3.22;;;12.20;81.60;;;;;;5033588;28;20032;-67
2020/12/20 12:38:15;;;;;;;9.02;3.83;;;12.00;82.20;;;;;;5021155;28;20041;-67
2020/12/20 12:40:41;;;;;;;7.38;4.25;;;11.90;82.80;;;;;;5018349;28;20334;-67
2020/12/20 12:43:13;;;;;;;11.13;4.22;;;11.70;83.50;;;;;;5027273;28;20029;-67
2020/12/20 12:45:43;;;;;;;5.82;2.80;;;11.50;84.00;;;;;;5017406;28;20034;-67
2020/12/20 12:48:17;;;;;;;6.25;2.97;;;11.40;84.00;;;;;;5016359;28;20033;-67
2020/12/20 12:50:50;;;;;;;6.78;3.08;;;11.40;84.40;;;;;;5024154;28;20042;-67
2020/12/20 12:53:18;;;;;;;6.82;2.80;;;11.30;84.30;;;;;;5034664;28;20033;-66
2020/12/20 12:55:43;;;;;;;6.93;4.18;;;11.40;84.50;;;;;;5035108;28;20128;-66
2020/12/20 12:58:09;;;;;;;4.43;2.58;;;11.50;84.30;;;;;;5036344;28;20112;-66
2020/12/20 13:00:35;;;;;;;7.28;3.20;;;11.40;83.90;;;;;;5035861;28;20105;-67
2020/12/20 13:03:00;;;;;;;8.48;4.13;;;11.30;84.30;;;;;;5028298;28;20027;-67